Time;durP1;ratioP1;P1;durP2;ratioP2;P2;SDS_P1;SDS_P2;PMS_P1;PMS_P2;Temp;Humidity;BMP_temperature;BMP_pressure;BME280_temperature;BME280_humidity;BME280_pressure;Samples;Min_cycle;Max_cycle;Signal;HPM_P1;HPM_P2
2021/07/04 00:00:36;;;;;;;0.10;0.10;;;21.00;60.50;;;;;;5026469;28;20468;-84
2021/07/04 00:03:02;;;;;;;0.00;0.00;;;21.00;60.60;;;;;;5011718;28;20034;-85
2021/07/04 00:05:37;;;;;;;0.00;0.00;;;21.00;60.60;;;;;;5011661;28;20026;-84
2021/07/04 00:08:03;;;;;;;0.10;0.10;;;21.00;60.70;;;;;;5026508;28;20021;-85
2021/07/04 00:10:32;;;;;;;0.00;0.00;;;21.00;60.70;;;;;;5026815;28;20053;-85
2021/07/04 00:12:58;;;;;;;0.00;0.00;;;20.90;60.70;;;;;;5026719;28;20033;-85
2021/07/04 00:15:26;;;;;;;0.00;0.00;;;20.90;60.80;;;;;;5011535;28;20037;-85
2021/07/04 00:17:52;;;;;;;0.00;0.00;;;20.90;60.90;;;;;;5026718;28;20026;-84
2021/07/04 00:20:21;;;;;;;0.00;0.00;;;20.90;61.00;;;;;;5026682;28;20022;-85
2021/07/04 00:22:47;;;;;;;371.77;53.08;;;20.90;61.10;;;;;;5010025;28;20038;-85
2021/07/04 00:25:14;;;;;;;45.88;43.20;;;20.90;61.10;;;;;;5010347;28;20052;-84
2021/07/04 00:27:40;;;;;;;0.03;0.03;;;20.90;61.20;;;;;;5010648;28;20469;-85
2021/07/04 00:30:08;;;;;;;0.00;0.00;;;20.90;61.20;;;;;;5012807;28;20050;-85
2021/07/04 00:32:34;;;;;;;0.20;0.00;;;20.90;61.20;;;;;;5010047;28;20038;-86
2021/07/04 00:35:00;;;;;;;0.00;0.00;;;20.90;61.30;;;;;;5004546;28;20029;-85
2021/07/04 00:37:26;;;;;;;4.05;0.10;;;20.90;61.40;;;;;;5030263;28;20029;-85
2021/07/04 00:39:52;;;;;;;0.13;0.05;;;20.90;61.40;;;;;;5030461;28;20030;-84
2021/07/04 00:42:18;;;;;;;0.75;0.20;;;20.80;61.40;;;;;;5029793;28;20025;-85
2021/07/04 00:44:44;;;;;;;0.00;0.00;;;20.90;61.50;;;;;;5029966;28;20070;-84
2021/07/04 00:47:10;;;;;;;0.00;0.00;;;20.90;61.60;;;;;;5014251;28;20033;-85
2021/07/04 00:49:36;;;;;;;0.00;0.00;;;20.80;61.60;;;;;;5029868;28;20499;-85
2021/07/04 00:52:03;;;;;;;0.15;0.00;;;20.80;61.70;;;;;;5029941;28;20045;-85
2021/07/04 00:54:29;;;;;;;0.00;0.00;;;20.80;61.80;;;;;;4994449;28;20041;-85
2021/07/04 00:56:55;;;;;;;0.03;0.00;;;20.80;61.80;;;;;;4993362;28;20041;-85
2021/07/04 00:59:21;;;;;;;0.00;0.00;;;20.80;62.00;;;;;;5029906;28;20053;-85
2021/07/04 01:01:48;;;;;;;0.00;0.00;;;20.80;62.00;;;;;;5029413;28;20038;-85
2021/07/04 01:04:14;;;;;;;0.32;0.13;;;20.80;62.00;;;;;;5029503;28;20465;-84
2021/07/04 01:06:41;;;;;;;0.85;0.03;;;20.80;62.10;;;;;;5013997;28;20041;-85
2021/07/04 01:09:07;;;;;;;0.22;0.00;;;20.80;62.10;;;;;;5029388;28;20030;-84
2021/07/04 01:11:34;;;;;;;0.00;0.00;;;20.70;62.10;;;;;;5029110;28;20038;-83
2021/07/04 01:14:00;;;;;;;0.00;0.00;;;20.80;62.20;;;;;;5029596;28;20460;-85
2021/07/04 01:16:26;;;;;;;0.52;0.00;;;20.70;62.20;;;;;;5013663;28;20311;-85
2021/07/04 01:18:53;;;;;;;0.00;0.00;;;20.70;62.30;;;;;;5029793;28;20026;-84
2021/07/04 01:21:19;;;;;;;0.00;0.00;;;20.70;62.30;;;;;;5013257;28;20026;-85
2021/07/04 01:23:46;;;;;;;0.00;0.00;;;20.70;62.40;;;;;;5029127;28;20037;-85
2021/07/04 01:26:12;;;;;;;0.10;0.00;;;20.70;62.40;;;;;;5028969;28;20025;-84
2021/07/04 01:28:38;;;;;;;0.03;0.00;;;20.70;62.50;;;;;;5029424;28;20033;-84
2021/07/04 01:31:04;;;;;;;0.00;0.00;;;20.70;62.60;;;;;;5028749;28;20042;-83
2021/07/04 01:33:32;;;;;;;0.88;0.10;;;20.70;62.60;;;;;;5014529;28;20054;-85
2021/07/04 01:35:58;;;;;;;0.17;0.08;;;20.60;62.70;;;;;;5029050;28;20502;-85
2021/07/04 01:38:24;;;;;;;0.15;0.00;;;20.70;62.80;;;;;;5028948;28;20029;-88
2021/07/04 01:40:50;;;;;;;0.00;0.00;;;20.60;62.90;;;;;;5013554;28;20025;-85
2021/07/04 01:43:16;;;;;;;0.38;0.13;;;20.60;63.70;;;;;;5029147;28;20034;-84
2021/07/04 01:45:42;;;;;;;0.00;0.00;;;20.60;63.00;;;;;;5012531;28;20033;-85
2021/07/04 01:48:08;;;;;;;0.70;0.00;;;20.60;63.10;;;;;;5028809;28;20469;-84
2021/07/04 01:50:36;;;;;;;1.67;0.10;;;20.60;63.10;;;;;;5028751;28;20064;-84
2021/07/04 01:53:03;;;;;;;0.00;0.00;;;20.60;63.20;;;;;;5028647;28;20022;-84
2021/07/04 01:55:29;;;;;;;0.08;0.03;;;20.60;63.20;;;;;;5013278;28;20041;-84
2021/07/04 01:57:56;;;;;;;0.30;0.00;;;20.60;63.30;;;;;;5012217;28;20041;-80
2021/07/04 02:00:27;;;;;;;0.00;0.00;;;20.50;64.10;;;;;;5013159;28;20034;-85
2021/07/04 02:02:57;;;;;;;0.00;0.00;;;20.60;63.40;;;;;;5025222;28;20037;-83
2021/07/04 02:05:23;;;;;;;0.30;0.10;;;20.60;63.40;;;;;;5021357;28;20487;-85
2021/07/04 02:07:50;;;;;;;0.00;0.00;;;20.60;63.50;;;;;;5022247;28;20037;-84
2021/07/04 02:10:24;;;;;;;0.52;0.43;;;20.60;63.50;;;;;;5025772;28;20397;-82
2021/07/04 02:12:50;;;;;;;0.00;0.00;;;20.60;63.60;;;;;;5023603;28;20412;-83
2021/07/04 02:15:21;;;;;;;0.17;0.00;;;20.60;63.60;;;;;;4997442;28;20037;-85
2021/07/04 02:17:47;;;;;;;0.10;0.10;;;20.50;63.80;;;;;;5015228;28;20030;-83
2021/07/04 02:20:31;;;;;;;0.15;0.03;;;20.50;63.90;;;;;;5009098;28;20091;-85
2021/07/04 02:23:18;;;;;;;0.05;0.00;;;20.40;64.00;;;;;;5005080;28;20042;-85
2021/07/04 02:25:45;;;;;;;0.00;0.00;;;20.40;64.10;;;;;;5005640;28;20042;-87
2021/07/04 02:28:12;;;;;;;0.10;0.00;;;20.40;64.20;;;;;;5023915;28;20022;-84
2021/07/04 02:30:39;;;;;;;0.00;0.00;;;20.50;64.40;;;;;;5004571;28;20034;-86
2021/07/04 02:33:06;;;;;;;0.38;0.08;;;20.40;64.70;;;;;;5019013;28;20029;-86
2021/07/04 02:35:42;;;;;;;0.63;0.38;;;20.40;64.40;;;;;;5018621;28;20025;-86
2021/07/04 02:38:08;;;;;;;0.00;0.00;;;20.40;64.50;;;;;;5026784;28;20033;-86
2021/07/04 02:40:34;;;;;;;0.40;0.10;;;20.40;64.60;;;;;;5012700;28;20030;-81
2021/07/04 02:43:01;;;;;;;0.20;0.00;;;20.40;64.70;;;;;;5012819;28;20030;-84
2021/07/04 02:45:27;;;;;;;0.28;0.08;;;20.40;64.80;;;;;;5012543;28;20038;-85
2021/07/04 02:47:53;;;;;;;0.00;0.00;;;20.40;64.80;;;;;;5012630;28;20049;-85
2021/07/04 02:50:21;;;;;;;0.05;0.00;;;20.40;64.90;;;;;;5027544;28;20049;-85
2021/07/04 02:52:48;;;;;;;0.32;0.08;;;20.30;64.90;;;;;;5011738;28;20026;-87
2021/07/04 02:55:14;;;;;;;0.15;0.00;;;20.40;65.00;;;;;;5027915;28;20025;-83
2021/07/04 02:57:40;;;;;;;0.00;0.00;;;20.40;65.10;;;;;;5011870;28;20030;-85
2021/07/04 03:00:07;;;;;;;0.08;0.00;;;20.40;65.20;;;;;;5011949;28;20022;-85
2021/07/04 03:02:33;;;;;;;0.00;0.00;;;20.30;65.20;;;;;;5027326;28;20038;-85
2021/07/04 03:04:59;;;;;;;0.00;0.00;;;20.30;65.30;;;;;;5011177;28;20033;-85
2021/07/04 03:07:25;;;;;;;0.00;0.00;;;20.30;65.60;;;;;;5027335;28;20026;-84
2021/07/04 03:09:51;;;;;;;0.00;0.00;;;20.30;65.50;;;;;;5028136;28;20037;-82
2021/07/04 03:12:18;;;;;;;0.05;0.05;;;20.30;65.60;;;;;;5006746;28;20046;-85
2021/07/04 03:14:44;;;;;;;0.00;0.00;;;20.20;66.30;;;;;;5006610;28;20026;-85
2021/07/04 03:17:10;;;;;;;0.00;0.00;;;20.20;65.70;;;;;;5010285;28;20041;-84
2021/07/04 03:19:36;;;;;;;0.10;0.10;;;20.20;65.70;;;;;;5027210;28;20037;-84
2021/07/04 03:22:03;;;;;;;0.08;0.00;;;20.10;65.80;;;;;;5027363;28;20026;-82
2021/07/04 03:24:29;;;;;;;0.00;0.00;;;20.10;66.00;;;;;;5011406;28;20030;-84
2021/07/04 03:26:55;;;;;;;0.10;0.10;;;20.10;66.00;;;;;;5027246;28;20093;-85
2021/07/04 03:29:21;;;;;;;0.52;0.10;;;20.10;66.00;;;;;;5007201;28;20050;-85
2021/07/04 03:31:47;;;;;;;0.00;0.00;;;20.10;66.10;;;;;;5014685;28;20045;-83
2021/07/04 03:34:14;;;;;;;0.20;0.00;;;20.10;66.20;;;;;;5011959;28;20031;-88
2021/07/04 03:36:40;;;;;;;0.10;0.00;;;20.00;66.20;;;;;;5011084;28;20041;-85
2021/07/04 03:39:06;;;;;;;0.00;0.00;;;20.00;66.20;;;;;;5012034;28;20026;-85
2021/07/04 03:41:32;;;;;;;0.00;0.00;;;19.90;66.30;;;;;;5027094;28;20025;-85
2021/07/04 03:44:01;;;;;;;0.10;0.00;;;19.90;66.50;;;;;;5027116;28;20026;-85
2021/07/04 03:46:27;;;;;;;0.00;0.00;;;19.90;66.50;;;;;;5010218;28;20484;-85
2021/07/04 03:48:53;;;;;;;0.00;0.00;;;19.90;66.50;;;;;;5027287;28;20022;-82
2021/07/04 03:51:20;;;;;;;0.17;0.08;;;19.90;66.50;;;;;;5010441;28;20041;-85
2021/07/04 03:53:46;;;;;;;1.40;0.30;;;19.90;66.50;;;;;;5007168;28;20038;-85
2021/07/04 03:56:12;;;;;;;0.10;0.00;;;19.90;66.50;;;;;;5001935;28;20042;-84
2021/07/04 03:58:38;;;;;;;1.20;0.60;;;19.90;66.60;;;;;;5027145;28;20033;-85
2021/07/04 04:01:04;;;;;;;0.45;0.15;;;19.90;66.60;;;;;;5026678;28;20034;-85
2021/07/04 04:03:30;;;;;;;0.10;0.10;;;19.90;66.80;;;;;;5012019;28;20037;-84
2021/07/04 04:05:57;;;;;;;6.32;0.10;;;19.90;66.80;;;;;;5030016;28;20025;-85
2021/07/04 04:08:23;;;;;;;0.47;0.38;;;19.90;66.80;;;;;;5015405;28;20029;-85
2021/07/04 04:10:50;;;;;;;0.00;0.00;;;19.90;66.80;;;;;;5014076;28;20042;-85
2021/07/04 04:13:16;;;;;;;0.00;0.00;;;19.90;66.90;;;;;;5015386;28;20503;-84
2021/07/04 04:15:42;;;;;;;0.25;0.00;;;19.80;66.90;;;;;;5015474;28;20026;-85
2021/07/04 04:18:09;;;;;;;0.00;0.00;;;19.80;66.90;;;;;;5015171;28;20420;-85
2021/07/04 04:20:35;;;;;;;0.10;0.03;;;19.80;67.00;;;;;;5014903;28;20362;-84
2021/07/04 04:23:01;;;;;;;0.22;0.00;;;19.80;67.00;;;;;;5030638;28;20041;-85
2021/07/04 04:25:27;;;;;;;0.22;0.10;;;19.80;67.10;;;;;;5030678;28;20029;-85
2021/07/04 04:27:53;;;;;;;0.10;0.00;;;19.80;67.10;;;;;;5015742;28;20045;-84
2021/07/04 04:30:19;;;;;;;0.00;0.00;;;19.80;67.10;;;;;;5017658;28;20049;-85
2021/07/04 04:32:45;;;;;;;0.00;0.00;;;19.80;68.00;;;;;;5013936;28;20041;-84
2021/07/04 04:35:11;;;;;;;0.15;0.00;;;19.80;67.20;;;;;;5014530;28;20033;-84
2021/07/04 04:37:38;;;;;;;0.00;0.00;;;19.80;67.20;;;;;;5014925;28;20484;-85
2021/07/04 04:40:05;;;;;;;0.00;0.00;;;19.80;67.30;;;;;;5030423;28;20472;-84
2021/07/04 04:42:31;;;;;;;0.00;0.00;;;19.80;67.30;;;;;;5014159;28;20041;-84
2021/07/04 04:44:57;;;;;;;0.20;0.10;;;19.80;67.30;;;;;;5010258;28;20038;-84
2021/07/04 04:47:23;;;;;;;0.15;0.15;;;19.90;67.30;;;;;;5007114;28;20034;-85
2021/07/04 04:49:49;;;;;;;0.10;0.00;;;19.90;67.30;;;;;;5013239;28;20038;-85
2021/07/04 04:52:15;;;;;;;0.20;0.10;;;19.90;67.30;;;;;;5029753;28;20042;-84
2021/07/04 04:54:42;;;;;;;0.00;0.00;;;19.90;67.30;;;;;;5014120;28;20018;-85
2021/07/04 04:57:08;;;;;;;0.43;0.00;;;19.90;67.30;;;;;;5029844;28;20407;-84
2021/07/04 04:59:35;;;;;;;1.85;0.40;;;19.90;67.30;;;;;;5009979;28;20600;-83
2021/07/04 05:02:01;;;;;;;0.35;0.08;;;19.90;67.40;;;;;;5018767;28;20488;-85
2021/07/04 05:04:27;;;;;;;0.00;0.00;;;19.90;67.40;;;;;;5029343;28;20038;-85
2021/07/04 05:06:53;;;;;;;0.05;0.05;;;19.90;67.40;;;;;;5030252;28;20033;-84
2021/07/04 05:09:19;;;;;;;0.05;0.00;;;19.90;67.40;;;;;;5014618;28;20034;-85
2021/07/04 05:11:46;;;;;;;0.00;0.00;;;19.90;67.40;;;;;;5029553;28;20378;-84
2021/07/04 05:14:12;;;;;;;0.30;0.20;;;19.90;67.40;;;;;;5029462;28;20473;-85
2021/07/04 05:16:38;;;;;;;0.00;0.00;;;19.90;67.40;;;;;;5011709;28;20026;-85
2021/07/04 05:19:07;;;;;;;0.20;0.00;;;20.00;67.50;;;;;;5013178;28;20515;-85
2021/07/04 05:21:33;;;;;;;0.00;0.00;;;20.00;67.50;;;;;;4994747;28;20042;-84
2021/07/04 05:24:03;;;;;;;0.20;0.10;;;20.00;67.50;;;;;;5026837;28;20037;-85
2021/07/04 05:26:29;;;;;;;0.10;0.10;;;20.00;67.50;;;;;;5009638;28;20046;-84
2021/07/04 05:28:55;;;;;;;0.00;0.00;;;20.00;67.50;;;;;;5002660;28;20388;-84
2021/07/04 05:31:22;;;;;;;0.00;0.00;;;20.00;67.60;;;;;;4997548;28;20049;-85
2021/07/04 05:33:49;;;;;;;0.00;0.00;;;20.00;67.50;;;;;;4996738;28;20511;-85
2021/07/04 05:36:15;;;;;;;0.85;0.22;;;20.00;67.60;;;;;;5008793;28;20053;-84
2021/07/04 05:38:42;;;;;;;0.05;0.05;;;20.00;67.60;;;;;;4996692;28;20412;-85
2021/07/04 05:41:10;;;;;;;0.15;0.03;;;20.00;67.60;;;;;;5028771;28;20037;-85
2021/07/04 05:43:39;;;;;;;0.10;0.08;;;20.10;67.60;;;;;;5013576;28;20477;-83
2021/07/04 05:46:05;;;;;;;0.13;0.08;;;20.10;67.70;;;;;;5012177;28;20026;-84
2021/07/04 05:48:31;;;;;;;0.10;0.00;;;20.10;67.60;;;;;;5012696;28;20412;-84
2021/07/04 05:50:57;;;;;;;0.43;0.15;;;20.10;67.60;;;;;;5028680;28;20050;-86
2021/07/04 05:53:24;;;;;;;0.10;0.00;;;20.10;67.70;;;;;;5013468;28;20357;-84
2021/07/04 05:55:50;;;;;;;0.10;0.00;;;20.20;67.60;;;;;;5028702;28;20045;-85
2021/07/04 05:58:16;;;;;;;0.00;0.00;;;20.20;67.70;;;;;;5028608;28;20041;-85
2021/07/04 06:00:42;;;;;;;0.00;0.00;;;20.20;67.60;;;;;;4992387;28;20030;-85
2021/07/04 06:03:08;;;;;;;0.00;0.00;;;20.20;67.70;;;;;;5010809;28;20040;-86
2021/07/04 06:05:34;;;;;;;0.20;0.10;;;20.20;67.70;;;;;;5028450;28;20033;-85
2021/07/04 06:08:00;;;;;;;2.13;0.30;;;20.20;67.70;;;;;;5028669;28;20465;-85
2021/07/04 06:10:27;;;;;;;0.00;0.00;;;20.20;67.70;;;;;;5028373;28;20022;-84
2021/07/04 06:12:53;;;;;;;0.00;0.00;;;20.20;67.70;;;;;;5029116;28;20030;-84
2021/07/04 06:15:19;;;;;;;0.00;0.00;;;20.30;68.60;;;;;;5012544;28;20487;-83
2021/07/04 06:17:45;;;;;;;10.65;0.28;;;20.30;67.70;;;;;;5028216;28;20038;-83
2021/07/04 06:20:14;;;;;;;0.20;0.00;;;20.30;67.70;;;;;;5028334;28;20034;-85
2021/07/04 06:22:40;;;;;;;0.08;0.00;;;20.40;67.60;;;;;;5028162;28;20089;-85
2021/07/04 06:25:10;;;;;;;0.00;0.00;;;20.40;67.60;;;;;;5013170;28;20026;-85
2021/07/04 06:27:37;;;;;;;0.00;0.00;;;20.50;67.60;;;;;;5006735;28;20022;-87
2021/07/04 06:30:04;;;;;;;0.00;0.00;;;20.50;67.50;;;;;;5025214;28;20069;-83
2021/07/04 06:32:30;;;;;;;0.00;0.00;;;20.50;67.50;;;;;;5027795;28;20392;-85
2021/07/04 06:34:56;;;;;;;0.13;0.10;;;20.50;67.40;;;;;;5012862;28;20030;-84
2021/07/04 06:37:22;;;;;;;0.13;0.10;;;20.60;67.50;;;;;;4997269;28;20484;-85
2021/07/04 06:39:48;;;;;;;0.17;0.00;;;20.60;67.40;;;;;;5011956;28;20033;-87
2021/07/04 06:42:14;;;;;;;0.00;0.00;;;20.60;67.40;;;;;;5012596;28;20036;-86
2021/07/04 06:44:40;;;;;;;0.10;0.03;;;20.70;67.40;;;;;;5027483;28;20384;-85
2021/07/04 06:47:06;;;;;;;0.00;0.00;;;20.70;67.40;;;;;;5010790;28;20034;-85
2021/07/04 06:49:32;;;;;;;0.00;0.00;;;20.80;67.30;;;;;;5027880;28;20025;-85
2021/07/04 06:51:58;;;;;;;0.00;0.00;;;20.80;67.20;;;;;;5012776;28;20048;-85
2021/07/04 06:54:24;;;;;;;0.10;0.03;;;20.90;67.10;;;;;;5011571;28;20022;-84
2021/07/04 06:56:50;;;;;;;7.68;0.57;;;21.00;67.00;;;;;;5027803;28;20030;-85
2021/07/04 06:59:16;;;;;;;0.00;0.00;;;21.00;67.00;;;;;;5027298;28;20477;-84
2021/07/04 07:01:43;;;;;;;0.00;0.00;;;21.10;66.90;;;;;;5010595;28;20034;-84
2021/07/04 07:04:09;;;;;;;0.08;0.00;;;21.20;66.70;;;;;;5012480;28;20366;-84
2021/07/04 07:06:35;;;;;;;0.00;0.00;;;21.30;66.70;;;;;;5012869;28;20041;-86
2021/07/04 07:09:01;;;;;;;0.10;0.00;;;21.30;66.60;;;;;;5027370;28;20397;-84
2021/07/04 07:11:27;;;;;;;0.00;0.00;;;21.30;66.50;;;;;;5012152;28;20038;-85
2021/07/04 07:13:53;;;;;;;0.00;0.00;;;21.40;66.60;;;;;;5027217;28;20037;-84
2021/07/04 07:16:19;;;;;;;0.00;0.00;;;21.40;66.50;;;;;;5011683;28;20033;-84
2021/07/04 07:18:45;;;;;;;0.00;0.00;;;21.50;66.50;;;;;;4992237;28;20034;-82
2021/07/04 07:21:11;;;;;;;0.00;0.00;;;21.60;66.30;;;;;;5010165;28;20036;-84
2021/07/04 07:23:37;;;;;;;0.00;0.00;;;21.60;66.20;;;;;;5012019;28;20396;-84
2021/07/04 07:26:03;;;;;;;0.73;0.00;;;21.70;66.20;;;;;;5011069;28;20059;-84
2021/07/04 07:28:29;;;;;;;0.00;0.00;;;21.70;66.10;;;;;;5026918;28;20026;-84
2021/07/04 07:30:56;;;;;;;0.00;0.00;;;21.70;66.00;;;;;;5026977;28;20045;-83
2021/07/04 07:33:22;;;;;;;0.00;0.00;;;21.80;66.00;;;;;;5010710;28;20036;-84
2021/07/04 07:35:51;;;;;;;0.22;0.13;;;21.80;66.00;;;;;;5011996;28;20088;-84
2021/07/04 07:38:18;;;;;;;0.00;0.00;;;21.70;66.00;;;;;;5012603;28;20034;-85
2021/07/04 07:40:44;;;;;;;2.55;0.65;;;21.70;66.20;;;;;;5031292;28;20025;-84
2021/07/04 07:43:10;;;;;;;0.00;0.00;;;21.60;66.30;;;;;;5030869;28;20042;-84
2021/07/04 07:45:36;;;;;;;0.00;0.00;;;21.60;66.40;;;;;;5015967;28;20030;-85
2021/07/04 07:48:02;;;;;;;0.10;0.08;;;21.60;66.60;;;;;;5016074;28;20025;-84
2021/07/04 07:50:28;;;;;;;0.10;0.00;;;21.60;66.60;;;;;;5015894;28;20025;-84
2021/07/04 07:52:54;;;;;;;0.08;0.00;;;21.60;66.60;;;;;;5031071;28;20030;-83
2021/07/04 07:55:20;;;;;;;0.20;0.10;;;21.60;66.60;;;;;;5015656;28;20026;-85
2021/07/04 07:57:46;;;;;;;0.00;0.00;;;21.60;66.60;;;;;;5015890;28;20037;-83
2021/07/04 08:00:13;;;;;;;0.00;0.00;;;21.60;66.70;;;;;;5015122;28;20029;-84
2021/07/04 08:02:41;;;;;;;0.28;0.00;;;21.60;66.90;;;;;;5030612;28;20040;-85
2021/07/04 08:05:07;;;;;;;0.15;0.10;;;21.50;67.00;;;;;;5030667;28;20042;-84
2021/07/04 08:07:36;;;;;;;0.10;0.00;;;21.50;66.90;;;;;;5013898;28;20033;-84
2021/07/04 08:10:04;;;;;;;0.25;0.00;;;21.50;67.00;;;;;;5014625;28;20050;-84
2021/07/04 08:12:30;;;;;;;0.00;0.00;;;21.50;67.00;;;;;;5014118;28;20472;-85
2021/07/04 08:14:56;;;;;;;0.00;0.00;;;21.60;67.00;;;;;;5010709;28;20035;-84
2021/07/04 08:17:22;;;;;;;0.00;0.00;;;21.50;66.90;;;;;;5007612;28;20034;-84
2021/07/04 08:19:49;;;;;;;0.00;0.00;;;21.60;67.10;;;;;;5030891;28;20018;-84
2021/07/04 08:22:15;;;;;;;0.52;0.25;;;21.60;67.10;;;;;;5015297;28;20038;-83
2021/07/04 08:24:41;;;;;;;0.03;0.00;;;21.60;67.10;;;;;;5011501;28;20530;-85
2021/07/04 08:27:07;;;;;;;0.00;0.00;;;21.60;67.10;;;;;;5012294;28;20030;-83
2021/07/04 08:29:33;;;;;;;0.00;0.00;;;21.60;67.10;;;;;;5030452;28;20064;-83
2021/07/04 08:32:00;;;;;;;1.25;0.20;;;21.50;67.20;;;;;;5013312;28;20042;-84
2021/07/04 08:34:26;;;;;;;0.47;0.05;;;21.50;67.40;;;;;;5015512;28;20389;-84
2021/07/04 08:36:52;;;;;;;0.00;0.00;;;21.40;67.50;;;;;;5015902;28;20033;-83
2021/07/04 08:39:18;;;;;;;0.00;0.00;;;21.40;67.70;;;;;;5015241;28;20034;-83
2021/07/04 08:41:44;;;;;;;0.13;0.00;;;21.40;67.70;;;;;;5029971;28;20055;-84
2021/07/04 08:44:10;;;;;;;0.10;0.00;;;21.50;67.60;;;;;;5029898;28;20030;-83
2021/07/04 08:46:43;;;;;;;0.00;0.00;;;21.60;67.50;;;;;;5029810;28;20396;-84
2021/07/04 08:49:10;;;;;;;0.85;0.22;;;21.70;67.30;;;;;;5030191;28;20041;-84
2021/07/04 08:51:36;;;;;;;0.10;0.10;;;21.90;67.20;;;;;;5013150;28;20038;-83
2021/07/04 08:54:02;;;;;;;0.00;0.00;;;21.90;67.20;;;;;;5030195;28;20026;-84
2021/07/04 08:56:28;;;;;;;0.13;0.00;;;21.90;67.20;;;;;;5029536;28;20026;-85
2021/07/04 08:58:54;;;;;;;1.10;0.10;;;22.10;67.10;;;;;;5029908;28;20037;-85
2021/07/04 09:01:22;;;;;;;0.20;0.03;;;22.30;66.70;;;;;;5029337;28;20053;-84
2021/07/04 09:03:50;;;;;;;3.30;0.00;;;22.50;66.40;;;;;;5010714;28;20034;-85
2021/07/04 09:06:56;;;;;;;0.00;0.00;;;22.60;66.20;;;;;;5012781;28;20030;-84
2021/07/04 09:09:26;;;;;;;0.22;0.00;;;22.70;66.20;;;;;;5031990;28;20029;-85
2021/07/04 09:12:10;;;;;;;0.10;0.00;;;22.70;66.00;;;;;;4995001;28;20049;-85
2021/07/04 09:14:47;;;;;;;0.00;0.00;;;22.80;66.10;;;;;;5050712;28;20059;-85
2021/07/04 09:17:17;;;;;;;0.25;0.15;;;22.80;66.10;;;;;;5041489;28;20838;-79
2021/07/04 09:19:54;;;;;;;0.00;0.00;;;22.70;66.20;;;;;;5014649;28;20472;-84
2021/07/04 09:22:31;;;;;;;1.35;0.10;;;22.70;66.40;;;;;;4999096;28;20040;-82
2021/07/04 09:25:10;;;;;;;0.00;0.00;;;22.60;66.60;;;;;;5028466;28;20030;-84
2021/07/04 09:27:38;;;;;;;0.20;0.10;;;22.40;66.90;;;;;;5014002;28;20038;-83
2021/07/04 09:30:06;;;;;;;0.22;0.00;;;22.30;67.20;;;;;;5030865;28;20056;-85
2021/07/04 09:32:32;;;;;;;0.15;0.08;;;22.30;67.40;;;;;;5014838;28;20033;-84
2021/07/04 09:35:04;;;;;;;0.00;0.00;;;22.40;67.40;;;;;;5031549;28;20095;-84
2021/07/04 09:37:30;;;;;;;0.55;0.10;;;22.40;67.30;;;;;;5014429;28;20068;-84
2021/07/04 09:40:11;;;;;;;0.60;0.20;;;22.40;67.20;;;;;;5003946;28;20034;-84
2021/07/04 09:42:53;;;;;;;0.00;0.00;;;22.50;67.30;;;;;;5012639;28;20497;-84
2021/07/04 09:45:20;;;;;;;0.00;0.00;;;22.60;67.30;;;;;;5013390;28;20042;-85
2021/07/04 09:47:51;;;;;;;0.03;0.00;;;22.60;67.20;;;;;;5028900;28;20385;-83
2021/07/04 09:50:17;;;;;;;;;;;22.60;67.20;;;;;;5028935;28;20033;-84
2021/07/04 09:52:55;;;;;;;0.00;0.00;;;22.70;67.10;;;;;;5028650;28;19921;-84
2021/07/04 09:55:21;;;;;;;2.72;0.40;;;22.70;66.90;;;;;;5028695;28;20397;-84
2021/07/04 09:57:55;;;;;;;0.13;0.00;;;22.70;66.80;;;;;;5012935;28;20041;-84
2021/07/04 10:00:22;;;;;;;0.00;0.00;;;22.80;67.00;;;;;;5012008;28;20029;-85
2021/07/04 10:03:10;;;;;;;0.00;0.00;;;22.70;67.00;;;;;;5007319;28;20041;-85
2021/07/04 10:06:00;;;;;;;0.10;0.00;;;22.70;67.00;;;;;;5007597;28;20026;-84
2021/07/04 10:08:37;;;;;;;0.00;0.00;;;22.80;67.00;;;;;;5014784;28;20041;-83
2021/07/04 10:11:03;;;;;;;0.22;0.08;;;22.80;66.90;;;;;;5028299;28;20500;-84
2021/07/04 10:13:30;;;;;;;0.00;0.00;;;22.80;66.90;;;;;;5013065;28;20381;-84
2021/07/04 10:15:56;;;;;;;5.57;0.35;;;22.70;67.00;;;;;;5028056;28;20033;-84
2021/07/04 10:18:22;;;;;;;0.08;0.00;;;22.70;67.10;;;;;;5011938;28;20026;-84
2021/07/04 10:20:49;;;;;;;0.60;0.25;;;22.60;67.30;;;;;;5008460;28;20400;-85
2021/07/04 10:23:17;;;;;;;0.00;0.00;;;22.50;67.40;;;;;;5019440;28;20030;-84
2021/07/04 10:25:44;;;;;;;0.57;0.25;;;22.50;67.60;;;;;;5028168;28;20018;-84
2021/07/04 10:28:15;;;;;;;0.00;0.00;;;22.40;67.50;;;;;;5011870;28;20041;-83
2021/07/04 10:30:41;;;;;;;0.00;0.00;;;22.50;67.70;;;;;;5011672;28;20049;-84
2021/07/04 10:33:14;;;;;;;0.00;0.00;;;22.60;67.70;;;;;;5027466;28;20400;-83
2021/07/04 10:36:05;;;;;;;0.00;0.00;;;22.80;67.50;;;;;;5027481;28;20021;-84
2021/07/04 10:38:56;;;;;;;0.22;0.10;;;23.00;67.10;;;;;;5027893;28;20022;-84
2021/07/04 10:41:32;;;;;;;0.00;0.00;;;23.10;66.80;;;;;;5012691;28;20037;-84
2021/07/04 10:44:00;;;;;;;0.00;0.00;;;23.10;66.70;;;;;;5028017;28;20022;-83
2021/07/04 10:46:46;;;;;;;0.43;0.22;;;23.10;66.70;;;;;;5027346;28;20038;-83
2021/07/04 10:49:22;;;;;;;0.08;0.08;;;23.10;66.90;;;;;;5012510;28;20029;-84
2021/07/04 10:52:06;;;;;;;0.00;0.00;;;23.10;67.00;;;;;;5011507;28;20038;-84
2021/07/04 10:54:52;;;;;;;0.10;0.10;;;23.00;67.10;;;;;;5011257;28;20049;-84
2021/07/04 10:57:34;;;;;;;0.55;0.43;;;22.90;67.10;;;;;;5027766;28;20036;-84
2021/07/04 11:00:00;;;;;;;0.28;0.10;;;22.90;67.20;;;;;;5012332;28;20022;-84
2021/07/04 11:02:46;;;;;;;0.38;0.10;;;22.90;67.30;;;;;;5011737;28;20033;-83
2021/07/04 11:05:34;;;;;;;0.00;0.00;;;23.00;67.20;;;;;;5012037;28;20034;-84
2021/07/04 11:08:13;;;;;;;0.00;0.00;;;23.10;66.90;;;;;;5010902;28;20029;-84
2021/07/04 11:10:48;;;;;;;11.70;0.20;;;23.00;66.90;;;;;;5012347;28;20036;-83
2021/07/04 11:13:21;;;;;;;0.00;0.00;;;22.90;67.10;;;;;;5011741;28;20412;-83
2021/07/04 11:15:51;;;;;;;0.03;0.00;;;22.70;67.40;;;;;;5007874;28;20037;-84
2021/07/04 11:18:19;;;;;;;0.00;0.00;;;22.60;67.60;;;;;;4993923;28;20046;-83
2021/07/04 11:20:46;;;;;;;0.08;0.00;;;22.60;67.70;;;;;;5026977;28;20022;-84
2021/07/04 11:23:19;;;;;;;0.00;0.00;;;22.70;67.60;;;;;;5010911;28;20424;-84
2021/07/04 11:26:08;;;;;;;0.00;0.00;;;22.90;67.40;;;;;;5012089;28;20031;-84
2021/07/04 11:28:38;;;;;;;0.00;0.00;;;23.20;67.10;;;;;;4997979;28;20022;-84
2021/07/04 11:31:15;;;;;;;0.00;0.00;;;23.50;66.60;;;;;;5026889;28;20485;-84
2021/07/04 11:33:51;;;;;;;0.00;0.00;;;23.70;66.10;;;;;;5011058;28;20037;-84
2021/07/04 11:36:27;;;;;;;0.22;0.10;;;23.90;66.50;;;;;;5027067;28;20388;-84
2021/07/04 11:38:53;;;;;;;0.00;0.00;;;24.20;65.40;;;;;;5011955;28;20026;-84
2021/07/04 11:41:25;;;;;;;0.00;0.00;;;24.20;65.10;;;;;;5011818;28;20022;-83
2021/07/04 11:43:54;;;;;;;0.00;0.00;;;24.30;65.10;;;;;;5011997;28;20029;-83
2021/07/04 11:46:22;;;;;;;1.23;0.10;;;24.40;65.00;;;;;;5026292;28;20030;-84
2021/07/04 11:49:08;;;;;;;0.08;0.00;;;24.50;65.00;;;;;;4991055;28;20046;-84
2021/07/04 11:51:49;;;;;;;0.00;0.00;;;24.60;64.90;;;;;;5027537;28;20034;-85
2021/07/04 11:54:19;;;;;;;1.08;0.13;;;24.60;64.70;;;;;;5025895;28;20025;-81
2021/07/04 11:57:30;;;;;;;2.30;0.20;;;24.60;64.70;;;;;;5027136;28;20018;-84
2021/07/04 11:59:59;;;;;;;0.20;0.10;;;24.50;64.60;;;;;;5024266;28;20026;-84
2021/07/04 12:02:25;;;;;;;0.00;0.00;;;24.30;64.70;;;;;;5026402;28;20041;-85
2021/07/04 12:04:51;;;;;;;0.00;0.00;;;24.30;64.80;;;;;;5026709;28;20030;-84
2021/07/04 12:07:21;;;;;;;0.00;0.00;;;24.30;64.70;;;;;;5026832;28;20034;-84
2021/07/04 12:09:55;;;;;;;0.00;0.00;;;24.30;64.50;;;;;;5011104;28;20033;-84
2021/07/04 12:12:22;;;;;;;0.00;0.00;;;24.30;64.40;;;;;;5026373;28;20042;-84
2021/07/04 12:14:52;;;;;;;0.00;0.00;;;24.30;64.30;;;;;;5011659;28;20022;-84
2021/07/04 12:17:23;;;;;;;0.30;0.10;;;24.20;64.10;;;;;;5026126;28;20511;-84
2021/07/04 12:20:11;;;;;;;0.00;0.00;;;24.10;64.10;;;;;;5026749;28;20072;-84
2021/07/04 12:22:52;;;;;;;0.00;0.00;;;24.00;64.20;;;;;;4998049;28;20037;-83
2021/07/04 12:25:28;;;;;;;0.00;0.00;;;24.00;64.20;;;;;;5026378;28;20018;-83
2021/07/04 12:27:55;;;;;;;0.00;0.00;;;24.10;64.00;;;;;;5011991;28;20472;-83
2021/07/04 12:30:25;;;;;;;0.00;0.00;;;24.20;63.70;;;;;;4993312;28;20046;-84
2021/07/04 12:32:53;;;;;;;0.00;0.00;;;24.20;63.30;;;;;;5010999;28;20061;-84
2021/07/04 12:35:28;;;;;;;0.00;0.00;;;24.30;63.10;;;;;;5030110;28;20022;-84
2021/07/04 12:37:56;;;;;;;0.00;0.00;;;24.40;62.90;;;;;;5029504;28;20369;-84
2021/07/04 12:40:34;;;;;;;1.17;0.00;;;24.40;62.60;;;;;;5014700;28;20356;-84
2021/07/04 12:43:08;;;;;;;0.00;0.00;;;24.50;62.50;;;;;;5011124;28;20052;-83
2021/07/04 12:45:34;;;;;;;0.00;0.00;;;24.40;62.40;;;;;;5011657;28;20030;-84
2021/07/04 12:48:04;;;;;;;0.17;0.17;;;24.40;62.40;;;;;;5009942;28;20061;-84
2021/07/04 12:50:40;;;;;;;0.00;0.00;;;24.30;62.50;;;;;;5008358;28;20037;-84
2021/07/04 12:53:07;;;;;;;0.10;0.00;;;24.30;62.50;;;;;;5029489;28;20044;-84
2021/07/04 12:55:35;;;;;;;14.55;0.10;;;24.30;62.20;;;;;;5014775;28;20022;-84